createdAt,value
2018-09-24T00:04:34.271Z,18.30
2018-09-24T00:07:03.488Z,18.40
2018-09-24T00:09:35.533Z,18.30
2018-09-24T00:12:03.933Z,18.30
2018-09-24T00:14:33.162Z,18.20
2018-09-24T00:17:01.371Z,18.20
2018-09-24T00:19:30.523Z,18.20
2018-09-24T00:21:58.709Z,18.20
2018-09-24T00:24:26.802Z,18.10
2018-09-24T00:26:55.227Z,18.10
2018-09-24T00:29:23.442Z,18.10
2018-09-24T00:31:51.602Z,18.10
2018-09-24T00:34:19.877Z,18.10
2018-09-24T00:36:48.237Z,18.10
2018-09-24T00:39:16.366Z,18.00
2018-09-24T00:41:44.464Z,18.00
2018-09-24T00:44:12.611Z,18.00
2018-09-24T00:46:40.775Z,18.00
2018-09-24T00:49:08.854Z,18.00
2018-09-24T00:51:37.262Z,17.90
2018-09-24T00:54:05.510Z,17.90
2018-09-24T00:56:33.754Z,17.90
2018-09-24T00:59:01.883Z,17.90
2018-09-24T01:01:30.104Z,17.90
2018-09-24T01:03:58.250Z,17.90
2018-09-24T01:06:26.475Z,17.80
2018-09-24T01:08:54.658Z,17.80
2018-09-24T01:11:22.928Z,17.80
2018-09-24T01:13:51.091Z,17.80
2018-09-24T01:16:19.215Z,17.80
2018-09-24T01:18:47.321Z,17.80
2018-09-24T01:21:15.473Z,17.80
2018-09-24T01:23:43.871Z,17.80
2018-09-24T01:26:11.962Z,17.80
2018-09-24T01:28:40.062Z,17.70
2018-09-24T01:31:08.656Z,17.70
2018-09-24T01:33:36.904Z,17.70
2018-09-24T01:36:05.247Z,17.60
2018-09-24T01:38:33.630Z,17.60
2018-09-24T01:41:01.914Z,17.60
2018-09-24T01:46:05.856Z,17.60
2018-09-24T01:48:33.956Z,17.60
2018-09-24T01:51:02.058Z,17.60
2018-09-24T01:53:30.222Z,17.60
2018-09-24T01:55:58.302Z,17.60
2018-09-24T01:58:26.409Z,17.60
2018-09-24T02:00:54.758Z,17.50
2018-09-24T02:03:28.778Z,17.50
2018-09-24T02:05:56.907Z,17.50
2018-09-24T02:08:25.002Z,17.50
2018-09-24T02:10:53.070Z,17.50
2018-09-24T02:13:21.134Z,17.50
2018-09-24T02:15:49.210Z,17.50
2018-09-24T02:18:17.681Z,17.50
2018-09-24T02:20:48.030Z,17.40
2018-09-24T02:23:16.597Z,17.40
2018-09-24T02:25:44.671Z,17.40
2018-09-24T02:28:12.876Z,17.40
2018-09-24T02:30:40.946Z,17.40
2018-09-24T02:33:10.514Z,17.40
2018-09-24T02:35:39.693Z,17.40
2018-09-24T02:38:07.788Z,17.40
2018-09-24T02:40:35.877Z,17.40
2018-09-24T02:43:03.972Z,17.40
2018-09-24T02:45:32.045Z,17.40
2018-09-24T02:48:00.149Z,17.30
2018-09-24T02:50:36.106Z,17.30
2018-09-24T02:53:04.206Z,17.30
2018-09-24T02:55:32.295Z,17.30
2018-09-24T02:58:00.374Z,17.30
2018-09-24T03:00:28.494Z,17.30
2018-09-24T03:02:56.566Z,17.30
2018-09-24T03:05:24.638Z,17.20
2018-09-24T03:07:53.221Z,17.30
2018-09-24T03:10:21.307Z,17.20
2018-09-24T03:12:51.511Z,17.20
2018-09-24T03:15:19.985Z,17.20
2018-09-24T03:17:48.047Z,17.20
2018-09-24T03:20:16.203Z,17.20
2018-09-24T03:22:44.261Z,17.20
2018-09-24T03:25:17.991Z,17.20
2018-09-24T03:27:46.230Z,17.10
2018-09-24T03:30:14.328Z,17.10
2018-09-24T03:32:42.410Z,17.10
2018-09-24T03:35:10.479Z,17.10
2018-09-24T03:37:38.574Z,17.10
2018-09-24T03:40:06.626Z,17.10
2018-09-24T03:42:34.758Z,17.10
2018-09-24T03:45:02.968Z,17.10
2018-09-24T03:47:31.031Z,17.10
2018-09-24T03:49:59.130Z,17.10
2018-09-24T03:52:27.222Z,17.10
2018-09-24T03:54:55.386Z,17.00
2018-09-24T03:57:23.566Z,17.00
2018-09-24T03:59:51.682Z,17.10
2018-09-24T04:02:19.795Z,17.10
2018-09-24T04:04:53.364Z,17.00
2018-09-24T04:07:27.012Z,17.00
2018-09-24T04:10:00.728Z,17.00
2018-09-24T04:12:34.107Z,17.00
2018-09-24T04:15:07.731Z,17.00
2018-09-24T04:17:41.280Z,17.00
2018-09-24T04:20:14.857Z,17.00
2018-09-24T04:22:48.354Z,16.90
2018-09-24T04:25:22.839Z,16.90
2018-09-24T04:27:56.475Z,16.90
2018-09-24T04:30:30.078Z,16.90
2018-09-24T04:33:03.736Z,16.90
2018-09-24T04:35:37.457Z,16.90
2018-09-24T04:38:11.156Z,16.90
2018-09-24T04:40:44.831Z,16.90
2018-09-24T04:43:18.578Z,16.90
2018-09-24T04:45:52.371Z,16.90
2018-09-24T04:48:25.970Z,16.90
2018-09-24T04:51:00.451Z,16.90
2018-09-24T04:53:34.111Z,16.90
2018-09-24T04:58:59.227Z,16.90
2018-09-24T05:01:32.931Z,16.90
2018-09-24T05:04:06.429Z,16.90
2018-09-24T05:06:40.066Z,16.90
2018-09-24T05:09:14.019Z,16.90
2018-09-24T05:11:47.743Z,16.90
2018-09-24T05:14:21.495Z,16.90
2018-09-24T05:16:55.461Z,16.90
2018-09-24T05:19:29.054Z,16.80
2018-09-24T05:22:02.726Z,16.90
2018-09-24T05:24:36.498Z,16.90
2018-09-24T05:27:10.450Z,16.90
2018-09-24T05:29:47.206Z,16.90
2018-09-24T05:32:21.111Z,16.90
2018-09-24T05:34:54.859Z,16.90
2018-09-24T05:37:28.578Z,16.90
2018-09-24T05:40:02.228Z,16.90
2018-09-24T05:42:35.990Z,16.80
2018-09-24T05:45:09.948Z,16.80
2018-09-24T05:47:43.625Z,16.90
2018-09-24T05:52:59.087Z,16.90
2018-09-24T05:55:33.307Z,16.90
2018-09-24T05:58:06.667Z,16.90
2018-09-24T06:00:40.243Z,16.90
2018-09-24T06:03:13.830Z,16.90
2018-09-24T06:05:47.266Z,16.90
2018-09-24T06:08:20.834Z,16.90
2018-09-24T06:10:54.432Z,16.90
2018-09-24T06:13:27.919Z,16.90
2018-09-24T06:16:01.861Z,16.90
2018-09-24T06:18:35.286Z,16.90
2018-09-24T06:21:08.884Z,17.00
2018-09-24T06:23:42.315Z,17.00
2018-09-24T06:26:15.654Z,17.00
2018-09-24T06:28:49.076Z,17.00
2018-09-24T06:31:22.501Z,17.00
2018-09-24T06:33:55.934Z,17.00
2018-09-24T06:36:29.245Z,17.00
2018-09-24T06:39:02.911Z,17.00
2018-09-24T06:41:36.454Z,17.00
2018-09-24T06:44:09.902Z,17.00
2018-09-24T06:46:43.513Z,17.00
2018-09-24T06:49:16.995Z,17.00
2018-09-24T06:51:50.509Z,17.00
2018-09-24T06:54:24.116Z,17.00
2018-09-24T06:56:57.606Z,17.10
2018-09-24T06:59:31.254Z,17.10
2018-09-24T07:02:04.759Z,17.10
2018-09-24T07:04:38.298Z,17.10
2018-09-24T07:07:11.863Z,17.10
2018-09-24T07:09:45.371Z,17.10
2018-09-24T07:12:18.804Z,17.20
2018-09-24T07:14:52.370Z,17.20
2018-09-24T07:17:25.889Z,17.20
2018-09-24T07:19:59.443Z,17.20
2018-09-24T07:22:32.866Z,17.20
2018-09-24T07:25:06.456Z,17.20
2018-09-24T07:27:39.958Z,17.30
2018-09-24T07:30:13.516Z,17.30
2018-09-24T07:32:47.142Z,17.30
2018-09-24T07:35:20.780Z,17.40
2018-09-24T07:37:54.216Z,17.40
2018-09-24T07:40:27.755Z,17.40
2018-09-24T07:43:01.318Z,17.40
2018-09-24T07:45:34.891Z,17.40
2018-09-24T07:48:08.343Z,17.40
2018-09-24T07:50:42.015Z,17.50
2018-09-24T07:53:15.679Z,17.50
2018-09-24T07:55:49.415Z,17.60
2018-09-24T07:58:22.983Z,17.60
2018-09-24T08:00:56.789Z,17.60
2018-09-24T08:03:30.370Z,17.60
2018-09-24T08:06:04.059Z,17.60
2018-09-24T08:08:37.642Z,17.70
2018-09-24T08:11:11.323Z,17.70
2018-09-24T08:13:44.903Z,17.70
2018-09-24T08:16:18.720Z,17.80
2018-09-24T08:18:52.189Z,17.70
2018-09-24T08:21:25.646Z,17.80
2018-09-24T08:23:59.268Z,17.80
2018-09-24T08:26:32.771Z,17.80
2018-09-24T08:29:06.502Z,17.90
2018-09-24T08:31:40.230Z,17.90
2018-09-24T08:34:13.804Z,17.90
2018-09-24T08:36:47.324Z,17.90
2018-09-24T08:39:21.026Z,19.70
2018-09-24T08:41:54.834Z,18.00
2018-09-24T08:44:28.478Z,18.10
2018-09-24T08:47:02.132Z,18.20
2018-09-24T08:49:35.865Z,18.30
2018-09-24T08:52:09.356Z,18.30
2018-09-24T08:54:42.826Z,18.30
2018-09-24T08:57:16.518Z,18.30
2018-09-24T08:59:49.986Z,18.30
2018-09-24T09:02:23.694Z,18.30
2018-09-24T09:04:57.292Z,18.40
2018-09-24T09:07:30.874Z,18.50
2018-09-24T09:10:04.456Z,18.60
2018-09-24T09:12:38.201Z,18.80
2018-09-24T09:15:11.672Z,18.80
2018-09-24T09:17:45.356Z,18.90
2018-09-24T09:20:18.861Z,18.90
2018-09-24T09:22:52.821Z,19.00
2018-09-24T09:25:34.262Z,18.90
2018-09-24T09:28:09.467Z,18.80
2018-09-24T09:30:43.678Z,18.70
2018-09-24T09:33:17.613Z,18.70
2018-09-24T09:35:51.527Z,18.70
2018-09-24T09:38:25.366Z,18.60
2018-09-24T09:40:59.523Z,18.60
2018-09-24T09:43:33.621Z,18.60
2018-09-24T09:46:07.471Z,18.70
2018-09-24T09:48:41.486Z,18.70
2018-09-24T09:51:16.178Z,18.80
2018-09-24T09:53:50.062Z,19.00
2018-09-24T09:56:23.833Z,19.00
2018-09-24T09:58:57.796Z,19.10
2018-09-24T10:01:31.571Z,19.20
2018-09-24T10:04:05.181Z,19.20
2018-09-24T10:06:38.784Z,19.30
2018-09-24T10:09:13.292Z,19.30
2018-09-24T10:11:47.092Z,19.40
2018-09-24T10:14:20.818Z,19.40
2018-09-24T10:16:54.467Z,19.50
2018-09-24T10:19:27.983Z,19.50
2018-09-24T10:22:01.618Z,19.50
2018-09-24T10:24:35.266Z,19.50
2018-09-24T10:29:57.409Z,19.60
2018-09-24T10:32:31.051Z,19.60
2018-09-24T10:35:04.663Z,19.60
2018-09-24T10:37:38.120Z,19.70
2018-09-24T10:40:12.489Z,19.70
2018-09-24T10:42:46.032Z,19.70
2018-09-24T10:45:19.532Z,19.80
2018-09-24T10:47:53.185Z,19.90
2018-09-24T10:50:26.775Z,19.90
2018-09-24T10:53:00.409Z,19.90
2018-09-24T10:55:33.699Z,20.00
2018-09-24T10:58:07.275Z,20.00
2018-09-24T11:00:40.940Z,20.10
2018-09-24T11:03:14.475Z,20.10
2018-09-24T11:05:48.114Z,20.20
2018-09-24T11:08:21.749Z,20.30
2018-09-24T11:10:55.170Z,20.40
2018-09-24T11:13:28.663Z,20.40
2018-09-24T11:16:02.212Z,20.50
2018-09-24T11:18:35.668Z,20.50
2018-09-24T11:21:09.331Z,20.50
2018-09-24T11:23:42.827Z,20.50
2018-09-24T11:28:49.869Z,20.60
2018-09-24T11:31:23.318Z,20.60
2018-09-24T11:33:56.782Z,20.60
2018-09-24T11:36:30.467Z,20.70
2018-09-24T11:39:03.939Z,20.70
2018-09-24T11:41:37.486Z,20.70
2018-09-24T11:44:10.958Z,20.70
2018-09-24T11:46:44.601Z,20.60
2018-09-24T11:49:18.036Z,20.50
2018-09-24T11:51:51.621Z,20.50
2018-09-24T11:54:25.062Z,20.50
2018-09-24T11:56:58.559Z,20.60
2018-09-24T11:59:31.934Z,20.60
2018-09-24T12:02:05.529Z,20.60
2018-09-24T12:04:38.990Z,20.70
2018-09-24T12:07:12.692Z,20.80
2018-09-24T12:09:45.998Z,20.70
2018-09-24T12:12:19.510Z,20.80
2018-09-24T12:14:53.142Z,20.80
2018-09-24T12:17:26.679Z,20.70
2018-09-24T12:20:00.418Z,20.70
2018-09-24T12:22:33.706Z,20.70
2018-09-24T12:25:07.213Z,20.70
2018-09-24T12:27:40.564Z,20.70
2018-09-24T12:30:13.959Z,20.60
2018-09-24T12:32:47.252Z,20.60
2018-09-24T12:35:20.714Z,20.60
2018-09-24T12:37:54.146Z,20.50
2018-09-24T12:40:27.555Z,20.50
2018-09-24T12:43:01.151Z,20.50
2018-09-24T12:45:34.836Z,20.50
2018-09-24T12:48:08.468Z,20.50
2018-09-24T12:50:41.923Z,20.50
2018-09-24T12:53:15.306Z,20.60
2018-09-24T12:55:48.574Z,20.60
2018-09-24T12:58:22.018Z,20.70
2018-09-24T13:00:55.511Z,20.60
2018-09-24T13:03:28.930Z,20.70
2018-09-24T13:06:02.515Z,20.70
2018-09-24T13:08:36.270Z,20.80
2018-09-24T13:11:09.913Z,20.80
2018-09-24T13:13:43.458Z,20.80
2018-09-24T13:16:16.854Z,20.90
2018-09-24T13:18:50.682Z,20.80
2018-09-24T13:21:24.194Z,20.80
2018-09-24T13:23:57.774Z,20.80
2018-09-24T13:26:31.334Z,20.80
2018-09-24T13:29:04.775Z,20.80
2018-09-24T13:31:38.138Z,20.80
2018-09-24T13:34:11.543Z,20.90
2018-09-24T13:36:44.818Z,20.90
2018-09-24T13:39:18.273Z,21.00
2018-09-24T13:41:51.767Z,21.00
2018-09-24T13:44:25.380Z,21.10
2018-09-24T13:46:58.986Z,21.10
2018-09-24T13:49:32.617Z,21.10
2018-09-24T13:52:07.004Z,21.10
2018-09-24T13:54:40.520Z,21.10
2018-09-24T13:57:13.847Z,21.10
2018-09-24T13:59:47.438Z,21.10
2018-09-24T14:02:21.348Z,21.10
2018-09-24T14:04:55.051Z,21.10
2018-09-24T14:07:28.590Z,21.00
2018-09-24T14:10:02.222Z,21.10
2018-09-24T14:12:35.538Z,21.00
2018-09-24T14:15:09.022Z,20.90
2018-09-24T14:17:42.844Z,20.90
2018-09-24T14:20:17.079Z,20.80
2018-09-24T14:22:51.571Z,20.70
2018-09-24T14:25:25.118Z,20.80
2018-09-24T14:27:59.052Z,20.80
2018-09-24T14:30:33.414Z,20.80
2018-09-24T14:33:06.834Z,20.80
2018-09-24T14:35:40.427Z,20.80
2018-09-24T14:38:14.158Z,20.90
2018-09-24T14:40:47.582Z,21.00
2018-09-24T14:43:21.200Z,20.90
2018-09-24T14:45:54.734Z,20.90
2018-09-24T14:48:28.282Z,20.90
2018-09-24T14:51:01.767Z,20.90
2018-09-24T14:53:35.362Z,20.80
2018-09-24T14:56:08.782Z,20.80
2018-09-24T14:58:42.099Z,20.60
2018-09-24T15:01:15.670Z,20.60
2018-09-24T15:03:49.098Z,20.60
2018-09-24T15:06:22.394Z,20.60
2018-09-24T15:08:55.834Z,20.60
2018-09-24T15:11:29.125Z,20.40
2018-09-24T15:14:02.582Z,20.40
2018-09-24T15:16:36.162Z,20.40
2018-09-24T15:19:09.561Z,20.30
2018-09-24T15:21:42.894Z,20.20
2018-09-24T15:24:16.363Z,20.20
2018-09-24T15:26:49.687Z,20.20
2018-09-24T15:29:23.083Z,20.20
2018-09-24T15:31:56.610Z,20.20
2018-09-24T15:34:30.198Z,20.20
2018-09-24T15:37:03.478Z,20.10
2018-09-24T15:39:36.934Z,20.10
2018-09-24T15:42:10.405Z,20.10
2018-09-24T15:44:43.988Z,20.20
2018-09-24T15:47:17.491Z,20.10
2018-09-24T15:49:51.062Z,20.00
2018-09-24T15:52:24.577Z,20.10
2018-09-24T15:54:58.106Z,20.00
2018-09-24T15:57:31.521Z,19.90
2018-09-24T16:00:04.989Z,20.00
2018-09-24T16:02:38.448Z,20.00
2018-09-24T16:05:11.950Z,20.00
2018-09-24T16:07:45.567Z,20.00
2018-09-24T16:10:19.030Z,20.00
2018-09-24T16:12:52.663Z,19.90
2018-09-24T16:15:26.120Z,19.90
2018-09-24T16:17:59.674Z,19.90
2018-09-24T16:20:33.095Z,19.90
2018-09-24T16:23:06.803Z,19.80
2018-09-24T16:25:40.475Z,19.90
2018-09-24T16:28:13.982Z,19.80
2018-09-24T16:30:47.537Z,19.80
2018-09-24T16:33:21.160Z,19.70
2018-09-24T16:35:54.578Z,19.70
2018-09-24T16:38:27.894Z,19.80
2018-09-24T16:41:01.364Z,19.80
2018-09-24T16:43:34.719Z,19.80
2018-09-24T16:46:08.330Z,19.90
2018-09-24T16:48:42.072Z,19.80
2018-09-24T16:51:15.519Z,19.70
2018-09-24T16:53:48.995Z,19.70
2018-09-24T16:56:22.590Z,19.60
2018-09-24T16:58:56.151Z,19.50
2018-09-24T17:01:29.646Z,19.50
2018-09-24T17:04:03.362Z,19.40
2018-09-24T17:06:36.938Z,19.40
2018-09-24T17:09:13.402Z,19.40
2018-09-24T17:11:47.073Z,19.40
2018-09-24T17:14:20.958Z,19.30
2018-09-24T17:16:54.345Z,19.30
2018-09-24T17:19:28.224Z,19.20
2018-09-24T17:22:01.972Z,19.20
2018-09-24T17:24:35.546Z,19.20
2018-09-24T17:27:09.475Z,19.20
2018-09-24T17:29:43.230Z,19.10
2018-09-24T17:32:16.725Z,19.10
2018-09-24T17:34:52.765Z,19.10
2018-09-24T17:37:26.509Z,19.10
2018-09-24T17:40:00.191Z,19.20
2018-09-24T17:42:33.798Z,19.00
2018-09-24T17:45:07.472Z,19.00
2018-09-24T17:50:24.050Z,18.90
2018-09-24T17:52:57.916Z,18.80
2018-09-24T17:55:31.459Z,18.80
2018-09-24T17:58:05.123Z,18.80
2018-09-24T18:00:38.780Z,18.80
2018-09-24T18:03:12.755Z,18.70
2018-09-24T18:05:46.403Z,18.70
2018-09-24T18:08:20.334Z,18.70
2018-09-24T18:10:54.166Z,18.70
2018-09-24T18:13:28.832Z,18.70
2018-09-24T18:16:03.644Z,18.70
2018-09-24T18:18:38.607Z,18.60
2018-09-24T18:21:12.378Z,18.60
2018-09-24T18:23:46.856Z,18.60
2018-09-24T18:26:22.597Z,18.60
2018-09-24T18:28:57.719Z,18.60
2018-09-24T18:31:31.254Z,18.60
2018-09-24T18:34:04.795Z,18.60
2018-09-24T18:36:38.272Z,18.70
2018-09-24T18:39:14.090Z,18.80
2018-09-24T18:41:47.963Z,18.80
2018-09-24T18:44:22.864Z,18.80
2018-09-24T18:46:56.298Z,18.70
2018-09-24T18:49:29.962Z,18.60
2018-09-24T18:52:03.756Z,18.60
2018-09-24T18:54:37.467Z,18.60
2018-09-24T18:57:11.034Z,18.60
2018-09-24T18:59:44.678Z,18.60
2018-09-24T19:02:18.279Z,18.50
2018-09-24T19:04:51.914Z,18.50
2018-09-24T19:07:25.529Z,18.50
2018-09-24T19:09:59.162Z,18.50
2018-09-24T19:12:32.779Z,18.50
2018-09-24T19:15:06.408Z,18.50
2018-09-24T19:17:40.539Z,18.50
2018-09-24T19:20:14.103Z,18.50
2018-09-24T19:22:47.856Z,18.50
2018-09-24T19:25:21.495Z,18.50
2018-09-24T19:27:55.062Z,18.50
2018-09-24T19:30:28.767Z,18.50
2018-09-24T19:33:02.208Z,18.50
2018-09-24T19:35:35.722Z,18.50
2018-09-24T19:38:09.208Z,18.50
2018-09-24T19:40:42.774Z,18.40
2018-09-24T19:43:16.498Z,18.40
2018-09-24T19:48:31.952Z,18.40
2018-09-24T19:51:05.701Z,18.40
2018-09-24T19:53:39.200Z,18.30
2018-09-24T19:56:12.720Z,18.30
2018-09-24T19:58:46.199Z,18.30
2018-09-24T20:01:19.757Z,18.30
2018-09-24T20:03:53.410Z,18.30
2018-09-24T20:06:27.030Z,18.30
2018-09-24T20:09:00.559Z,18.30
2018-09-24T20:11:33.955Z,18.30
2018-09-24T20:14:07.379Z,18.30
2018-09-24T20:16:40.990Z,18.30
2018-09-24T20:19:14.605Z,18.30
2018-09-24T20:21:48.007Z,18.30
2018-09-24T20:24:21.458Z,18.20
2018-09-24T20:26:54.770Z,18.20
2018-09-24T20:29:28.581Z,18.20
2018-09-24T20:32:01.973Z,18.20
2018-09-24T20:34:35.440Z,18.20
2018-09-24T20:37:09.039Z,18.20
2018-09-24T20:39:42.314Z,18.20
2018-09-24T20:42:15.734Z,18.20
2018-09-24T20:44:49.192Z,18.20
2018-09-24T20:47:22.729Z,18.20
2018-09-24T20:49:56.378Z,18.20
2018-09-24T20:52:30.100Z,18.20
2018-09-24T20:55:03.575Z,18.20
2018-09-24T20:57:37.179Z,18.20
2018-09-24T21:00:11.305Z,18.10
2018-09-24T21:02:44.918Z,18.10
2018-09-24T21:05:18.396Z,18.10
2018-09-24T21:07:52.038Z,18.10
2018-09-24T21:10:25.394Z,18.10
2018-09-24T21:12:58.952Z,18.10
2018-09-24T21:15:32.706Z,18.20
2018-09-24T21:18:06.321Z,18.10
2018-09-24T21:20:40.000Z,18.10
2018-09-24T21:23:13.610Z,18.10
2018-09-24T21:25:47.357Z,18.10
2018-09-24T21:28:21.081Z,18.20
2018-09-24T21:30:54.827Z,18.10
2018-09-24T21:33:28.331Z,18.10
2018-09-24T21:36:01.923Z,18.10
2018-09-24T21:38:35.334Z,18.10
2018-09-24T21:41:09.114Z,18.10
2018-09-24T21:43:42.846Z,18.10
2018-09-24T21:46:16.659Z,18.10
2018-09-24T21:48:50.024Z,18.10
2018-09-24T21:51:23.644Z,18.10
2018-09-24T21:53:57.220Z,18.10
2018-09-24T21:56:30.682Z,18.20
2018-09-24T21:59:04.101Z,18.20
2018-09-24T22:01:38.129Z,18.30
2018-09-24T22:04:11.790Z,18.20
2018-09-24T22:06:45.606Z,18.30
2018-09-24T22:09:19.218Z,18.30
2018-09-24T22:11:53.007Z,18.30
2018-09-24T22:14:26.454Z,18.20
2018-09-24T22:17:00.161Z,18.20
2018-09-24T22:19:33.812Z,18.10
2018-09-24T22:22:07.386Z,18.10
2018-09-24T22:24:40.947Z,18.10
2018-09-24T22:27:14.658Z,18.00
2018-09-24T22:29:48.302Z,18.00
2018-09-24T22:32:21.925Z,18.00
2018-09-24T22:34:55.687Z,18.00
2018-09-24T22:37:29.254Z,18.00
2018-09-24T22:40:02.710Z,17.90
2018-09-24T22:42:36.282Z,17.90
2018-09-24T22:45:09.909Z,17.90
2018-09-24T22:47:43.482Z,17.90
2018-09-24T22:50:17.199Z,17.90
2018-09-24T22:52:50.822Z,17.90
2018-09-24T22:55:24.237Z,17.90
2018-09-24T22:57:57.607Z,17.90
2018-09-24T23:00:31.088Z,17.80
2018-09-24T23:03:04.693Z,17.80
2018-09-24T23:05:38.269Z,17.80
2018-09-24T23:08:11.765Z,17.80
2018-09-24T23:10:45.456Z,17.80
2018-09-24T23:13:19.104Z,17.70
2018-09-24T23:15:55.055Z,17.70
2018-09-24T23:18:28.719Z,17.70
2018-09-24T23:21:02.194Z,17.70
2018-09-24T23:23:35.952Z,17.70
2018-09-24T23:26:09.406Z,17.70
2018-09-24T23:28:42.734Z,17.70
2018-09-24T23:31:16.530Z,17.60
2018-09-24T23:33:51.589Z,17.70
2018-09-24T23:36:25.208Z,17.60
2018-09-24T23:38:59.048Z,17.60
2018-09-24T23:41:32.860Z,17.50
2018-09-24T23:44:06.561Z,17.60
2018-09-24T23:46:40.246Z,17.70
2018-09-24T23:49:14.160Z,17.60
2018-09-24T23:51:47.530Z,17.60
2018-09-24T23:54:21.058Z,17.70
2018-09-24T23:56:54.749Z,17.70
2018-09-24T23:59:28.514Z,17.60
